sensor_id;sensor_type;location;lat;lon;timestamp;P1;durP1;ratioP1;P2;durP2;ratioP2
53775;SDS011;44276;49.534;6.378;2023-12-14T00:02:26;29.58;;;12.45;;
53775;SDS011;44276;49.534;6.378;2023-12-14T00:04:54;28.38;;;13.60;;
53775;SDS011;44276;49.534;6.378;2023-12-14T00:07:23;24.80;;;11.38;;
53775;SDS011;44276;49.534;6.378;2023-12-14T00:09:51;24.60;;;11.75;;
53775;SDS011;44276;49.534;6.378;2023-12-14T00:12:19;24.73;;;13.25;;
53775;SDS011;44276;49.534;6.378;2023-12-14T00:14:47;25.35;;;11.63;;
53775;SDS011;44276;49.534;6.378;2023-12-14T00:17:16;25.98;;;13.18;;
53775;SDS011;44276;49.534;6.378;2023-12-14T00:19:45;28.90;;;10.43;;
53775;SDS011;44276;49.534;6.378;2023-12-14T00:22:14;26.92;;;12.23;;
53775;SDS011;44276;49.534;6.378;2023-12-14T00:24:42;24.67;;;12.07;;
53775;SDS011;44276;49.534;6.378;2023-12-14T00:27:10;31.48;;;11.82;;
53775;SDS011;44276;49.534;6.378;2023-12-14T00:29:38;21.25;;;11.00;;
53775;SDS011;44276;49.534;6.378;2023-12-14T00:32:06;25.27;;;11.82;;
53775;SDS011;44276;49.534;6.378;2023-12-14T00:34:35;27.42;;;12.27;;
53775;SDS011;44276;49.534;6.378;2023-12-14T00:37:04;23.98;;;11.60;;
53775;SDS011;44276;49.534;6.378;2023-12-14T00:39:32;29.35;;;12.32;;
53775;SDS011;44276;49.534;6.378;2023-12-14T00:42:01;26.15;;;11.15;;
53775;SDS011;44276;49.534;6.378;2023-12-14T00:44:29;29.35;;;13.35;;
53775;SDS011;44276;49.534;6.378;2023-12-14T00:46:57;28.40;;;12.63;;
53775;SDS011;44276;49.534;6.378;2023-12-14T00:49:26;29.05;;;11.80;;
53775;SDS011;44276;49.534;6.378;2023-12-14T00:51:55;25.88;;;10.85;;
53775;SDS011;44276;49.534;6.378;2023-12-14T00:54:26;27.83;;;12.77;;
53775;SDS011;44276;49.534;6.378;2023-12-14T00:56:54;36.13;;;12.85;;
53775;SDS011;44276;49.534;6.378;2023-12-14T00:59:22;25.48;;;12.40;;
53775;SDS011;44276;49.534;6.378;2023-12-14T01:01:50;27.17;;;11.13;;
53775;SDS011;44276;49.534;6.378;2023-12-14T01:04:19;25.92;;;11.32;;
53775;SDS011;44276;49.534;6.378;2023-12-14T01:06:47;27.17;;;12.38;;
53775;SDS011;44276;49.534;6.378;2023-12-14T01:09:15;32.55;;;12.70;;
53775;SDS011;44276;49.534;6.378;2023-12-14T01:11:44;33.50;;;14.63;;
53775;SDS011;44276;49.534;6.378;2023-12-14T01:14:12;32.90;;;14.52;;
53775;SDS011;44276;49.534;6.378;2023-12-14T01:16:40;29.35;;;12.35;;
53775;SDS011;44276;49.534;6.378;2023-12-14T01:19:09;37.17;;;13.43;;
53775;SDS011;44276;49.534;6.378;2023-12-14T01:21:37;30.30;;;14.35;;
53775;SDS011;44276;49.534;6.378;2023-12-14T01:24:06;30.75;;;13.68;;
53775;SDS011;44276;49.534;6.378;2023-12-14T01:26:35;24.75;;;12.85;;
53775;SDS011;44276;49.534;6.378;2023-12-14T01:29:04;23.92;;;12.73;;
53775;SDS011;44276;49.534;6.378;2023-12-14T01:31:31;25.98;;;12.32;;
53775;SDS011;44276;49.534;6.378;2023-12-14T01:34:00;24.65;;;12.45;;
53775;SDS011;44276;49.534;6.378;2023-12-14T01:36:28;33.17;;;14.43;;
53775;SDS011;44276;49.534;6.378;2023-12-14T01:38:56;30.58;;;15.38;;
53775;SDS011;44276;49.534;6.378;2023-12-14T01:41:25;28.15;;;12.52;;
53775;SDS011;44276;49.534;6.378;2023-12-14T01:43:53;29.83;;;12.27;;
53775;SDS011;44276;49.534;6.378;2023-12-14T01:46:23;28.27;;;12.63;;
53775;SDS011;44276;49.534;6.378;2023-12-14T01:48:51;24.60;;;11.02;;
53775;SDS011;44276;49.534;6.378;2023-12-14T01:51:19;36.75;;;14.10;;
53775;SDS011;44276;49.534;6.378;2023-12-14T01:53:48;27.90;;;11.70;;
53775;SDS011;44276;49.534;6.378;2023-12-14T01:56:16;36.15;;;14.05;;
53775;SDS011;44276;49.534;6.378;2023-12-14T01:58:44;26.52;;;12.48;;
53775;SDS011;44276;49.534;6.378;2023-12-14T02:01:14;39.67;;;14.55;;
53775;SDS011;44276;49.534;6.378;2023-12-14T02:03:56;33.10;;;13.70;;
53775;SDS011;44276;49.534;6.378;2023-12-14T02:06:24;34.05;;;13.60;;
53775;SDS011;44276;49.534;6.378;2023-12-14T02:08:53;45.55;;;15.05;;
53775;SDS011;44276;49.534;6.378;2023-12-14T02:11:21;39.65;;;15.30;;
53775;SDS011;44276;49.534;6.378;2023-12-14T02:13:49;36.00;;;14.25;;
53775;SDS011;44276;49.534;6.378;2023-12-14T02:16:17;36.67;;;14.30;;
53775;SDS011;44276;49.534;6.378;2023-12-14T02:18:47;35.30;;;14.98;;
53775;SDS011;44276;49.534;6.378;2023-12-14T02:21:15;36.10;;;14.85;;
53775;SDS011;44276;49.534;6.378;2023-12-14T02:23:46;35.83;;;13.45;;
53775;SDS011;44276;49.534;6.378;2023-12-14T02:26:14;32.40;;;12.30;;
53775;SDS011;44276;49.534;6.378;2023-12-14T02:28:43;39.90;;;14.07;;
53775;SDS011;44276;49.534;6.378;2023-12-14T02:31:11;32.85;;;12.02;;
53775;SDS011;44276;49.534;6.378;2023-12-14T02:33:39;32.38;;;12.70;;
53775;SDS011;44276;49.534;6.378;2023-12-14T02:36:08;39.25;;;13.98;;
53775;SDS011;44276;49.534;6.378;2023-12-14T02:38:36;32.95;;;13.70;;
53775;SDS011;44276;49.534;6.378;2023-12-14T02:41:06;34.35;;;13.45;;
53775;SDS011;44276;49.534;6.378;2023-12-14T02:43:34;41.63;;;15.38;;
53775;SDS011;44276;49.534;6.378;2023-12-14T02:46:04;37.20;;;14.63;;
53775;SDS011;44276;49.534;6.378;2023-12-14T02:48:33;40.85;;;13.82;;
53775;SDS011;44276;49.534;6.378;2023-12-14T02:51:01;33.35;;;13.05;;
53775;SDS011;44276;49.534;6.378;2023-12-14T02:53:30;28.25;;;12.35;;
53775;SDS011;44276;49.534;6.378;2023-12-14T02:56:00;35.17;;;12.85;;
53775;SDS011;44276;49.534;6.378;2023-12-14T02:58:30;36.03;;;13.18;;
53775;SDS011;44276;49.534;6.378;2023-12-14T03:00:58;39.20;;;12.65;;
53775;SDS011;44276;49.534;6.378;2023-12-14T03:03:27;37.15;;;14.13;;
53775;SDS011;44276;49.534;6.378;2023-12-14T03:05:55;42.15;;;12.82;;
53775;SDS011;44276;49.534;6.378;2023-12-14T03:08:23;36.83;;;13.00;;
53775;SDS011;44276;49.534;6.378;2023-12-14T03:10:51;38.50;;;13.32;;
53775;SDS011;44276;49.534;6.378;2023-12-14T03:13:20;35.13;;;14.77;;
53775;SDS011;44276;49.534;6.378;2023-12-14T03:15:49;39.58;;;14.05;;
53775;SDS011;44276;49.534;6.378;2023-12-14T03:18:18;36.47;;;12.63;;
53775;SDS011;44276;49.534;6.378;2023-12-14T03:20:46;35.78;;;11.43;;
53775;SDS011;44276;49.534;6.378;2023-12-14T03:23:15;43.83;;;15.35;;
53775;SDS011;44276;49.534;6.378;2023-12-14T03:25:43;40.17;;;14.95;;
53775;SDS011;44276;49.534;6.378;2023-12-14T03:28:11;42.55;;;14.65;;
53775;SDS011;44276;49.534;6.378;2023-12-14T03:30:39;46.33;;;13.75;;
53775;SDS011;44276;49.534;6.378;2023-12-14T03:33:09;51.45;;;15.43;;
53775;SDS011;44276;49.534;6.378;2023-12-14T03:35:37;32.58;;;14.15;;
53775;SDS011;44276;49.534;6.378;2023-12-14T03:38:08;46.42;;;14.23;;
53775;SDS011;44276;49.534;6.378;2023-12-14T03:40:36;40.03;;;14.88;;
53775;SDS011;44276;49.534;6.378;2023-12-14T03:43:04;50.10;;;14.85;;
53775;SDS011;44276;49.534;6.378;2023-12-14T03:45:33;48.13;;;14.90;;
53775;SDS011;44276;49.534;6.378;2023-12-14T03:48:01;51.78;;;15.73;;
53775;SDS011;44276;49.534;6.378;2023-12-14T03:50:31;44.28;;;14.13;;
53775;SDS011;44276;49.534;6.378;2023-12-14T03:53:00;98.25;;;19.90;;
53775;SDS011;44276;49.534;6.378;2023-12-14T03:55:28;76.35;;;18.02;;
53775;SDS011;44276;49.534;6.378;2023-12-14T03:57:56;58.13;;;14.82;;
53775;SDS011;44276;49.534;6.378;2023-12-14T04:00:24;51.13;;;14.73;;
53775;SDS011;44276;49.534;6.378;2023-12-14T04:02:53;61.83;;;17.23;;
53775;SDS011;44276;49.534;6.378;2023-12-14T04:05:21;54.10;;;14.98;;
53775;SDS011;44276;49.534;6.378;2023-12-14T04:07:51;53.53;;;15.05;;
53775;SDS011;44276;49.534;6.378;2023-12-14T04:10:19;63.35;;;22.10;;
53775;SDS011;44276;49.534;6.378;2023-12-14T04:12:48;89.75;;;23.85;;
53775;SDS011;44276;49.534;6.378;2023-12-14T04:15:16;50.03;;;18.35;;
53775;SDS011;44276;49.534;6.378;2023-12-14T04:17:44;73.47;;;23.33;;
53775;SDS011;44276;49.534;6.378;2023-12-14T04:20:13;49.38;;;18.88;;
53775;SDS011;44276;49.534;6.378;2023-12-14T04:22:42;76.63;;;22.40;;
53775;SDS011;44276;49.534;6.378;2023-12-14T04:25:12;114.40;;;41.80;;
53775;SDS011;44276;49.534;6.378;2023-12-14T04:27:40;97.78;;;33.85;;
53775;SDS011;44276;49.534;6.378;2023-12-14T04:30:09;73.88;;;21.92;;
53775;SDS011;44276;49.534;6.378;2023-12-14T04:32:38;55.08;;;18.88;;
53775;SDS011;44276;49.534;6.378;2023-12-14T04:35:07;70.72;;;17.52;;
53775;SDS011;44276;49.534;6.378;2023-12-14T04:37:36;65.32;;;17.05;;
53775;SDS011;44276;49.534;6.378;2023-12-14T04:40:04;67.53;;;17.45;;
53775;SDS011;44276;49.534;6.378;2023-12-14T04:42:36;65.70;;;15.57;;
53775;SDS011;44276;49.534;6.378;2023-12-14T04:45:05;45.13;;;13.27;;
53775;SDS011;44276;49.534;6.378;2023-12-14T04:47:35;61.38;;;17.17;;
53775;SDS011;44276;49.534;6.378;2023-12-14T04:50:04;57.30;;;16.83;;
53775;SDS011;44276;49.534;6.378;2023-12-14T04:52:33;59.20;;;16.15;;
53775;SDS011;44276;49.534;6.378;2023-12-14T04:55:02;56.92;;;18.25;;
53775;SDS011;44276;49.534;6.378;2023-12-14T04:57:30;59.75;;;18.27;;
53775;SDS011;44276;49.534;6.378;2023-12-14T05:00:00;61.72;;;17.05;;
53775;SDS011;44276;49.534;6.378;2023-12-14T05:02:28;58.03;;;15.82;;
53775;SDS011;44276;49.534;6.378;2023-12-14T05:04:59;47.30;;;16.55;;
53775;SDS011;44276;49.534;6.378;2023-12-14T05:07:28;68.97;;;18.48;;
53775;SDS011;44276;49.534;6.378;2023-12-14T05:09:57;55.92;;;15.98;;
53775;SDS011;44276;49.534;6.378;2023-12-14T05:12:25;53.67;;;15.43;;
53775;SDS011;44276;49.534;6.378;2023-12-14T05:14:55;51.80;;;16.30;;
53775;SDS011;44276;49.534;6.378;2023-12-14T05:17:24;60.15;;;16.60;;
53775;SDS011;44276;49.534;6.378;2023-12-14T05:19:52;73.05;;;18.52;;
53775;SDS011;44276;49.534;6.378;2023-12-14T05:22:21;58.15;;;16.73;;
53775;SDS011;44276;49.534;6.378;2023-12-14T05:24:49;66.65;;;18.48;;
53775;SDS011;44276;49.534;6.378;2023-12-14T05:27:17;83.05;;;19.25;;
53775;SDS011;44276;49.534;6.378;2023-12-14T05:29:46;68.20;;;16.33;;
53775;SDS011;44276;49.534;6.378;2023-12-14T05:32:14;61.40;;;17.10;;
53775;SDS011;44276;49.534;6.378;2023-12-14T05:34:44;68.32;;;17.02;;
53775;SDS011;44276;49.534;6.378;2023-12-14T05:37:12;70.65;;;19.35;;
53775;SDS011;44276;49.534;6.378;2023-12-14T05:39:41;66.35;;;17.52;;
53775;SDS011;44276;49.534;6.378;2023-12-14T05:42:11;80.47;;;21.55;;
53775;SDS011;44276;49.534;6.378;2023-12-14T05:44:43;127.15;;;23.52;;
53775;SDS011;44276;49.534;6.378;2023-12-14T05:47:11;101.93;;;24.10;;
53775;SDS011;44276;49.534;6.378;2023-12-14T05:49:40;89.55;;;22.38;;
53775;SDS011;44276;49.534;6.378;2023-12-14T05:52:10;102.93;;;26.65;;
53775;SDS011;44276;49.534;6.378;2023-12-14T05:54:39;126.35;;;28.20;;
53775;SDS011;44276;49.534;6.378;2023-12-14T05:57:07;158.30;;;28.38;;
53775;SDS011;44276;49.534;6.378;2023-12-14T05:59:35;126.75;;;29.55;;
53775;SDS011;44276;49.534;6.378;2023-12-14T06:02:04;184.35;;;31.33;;
53775;SDS011;44276;49.534;6.378;2023-12-14T06:04:33;154.52;;;29.77;;
53775;SDS011;44276;49.534;6.378;2023-12-14T06:07:01;168.15;;;29.67;;
53775;SDS011;44276;49.534;6.378;2023-12-14T06:09:32;113.25;;;25.13;;
53775;SDS011;44276;49.534;6.378;2023-12-14T06:12:03;124.43;;;29.08;;
53775;SDS011;44276;49.534;6.378;2023-12-14T06:14:32;188.05;;;31.00;;
53775;SDS011;44276;49.534;6.378;2023-12-14T06:17:00;156.38;;;31.63;;
53775;SDS011;44276;49.534;6.378;2023-12-14T06:19:28;117.15;;;27.25;;
53775;SDS011;44276;49.534;6.378;2023-12-14T06:21:57;170.27;;;33.15;;
53775;SDS011;44276;49.534;6.378;2023-12-14T06:24:25;123.05;;;28.55;;
53775;SDS011;44276;49.534;6.378;2023-12-14T06:26:54;124.88;;;27.27;;
53775;SDS011;44276;49.534;6.378;2023-12-14T06:29:23;147.25;;;32.22;;
53775;SDS011;44276;49.534;6.378;2023-12-14T06:31:51;116.35;;;28.23;;
53775;SDS011;44276;49.534;6.378;2023-12-14T06:34:19;126.20;;;28.83;;
53775;SDS011;44276;49.534;6.378;2023-12-14T06:36:48;159.68;;;30.98;;
53775;SDS011;44276;49.534;6.378;2023-12-14T06:39:16;196.90;;;34.80;;
53775;SDS011;44276;49.534;6.378;2023-12-14T06:41:46;125.50;;;28.33;;
53775;SDS011;44276;49.534;6.378;2023-12-14T06:44:15;133.57;;;27.67;;
53775;SDS011;44276;49.534;6.378;2023-12-14T06:46:44;150.35;;;31.58;;
53775;SDS011;44276;49.534;6.378;2023-12-14T06:49:12;130.65;;;32.65;;
53775;SDS011;44276;49.534;6.378;2023-12-14T06:51:40;125.38;;;30.02;;
53775;SDS011;44276;49.534;6.378;2023-12-14T06:54:08;138.90;;;29.70;;
53775;SDS011;44276;49.534;6.378;2023-12-14T06:56:36;211.07;;;38.60;;
53775;SDS011;44276;49.534;6.378;2023-12-14T06:59:05;231.50;;;37.67;;
53775;SDS011;44276;49.534;6.378;2023-12-14T07:01:34;170.63;;;34.65;;
53775;SDS011;44276;49.534;6.378;2023-12-14T07:04:03;222.70;;;37.40;;
53775;SDS011;44276;49.534;6.378;2023-12-14T07:06:31;190.02;;;36.00;;
53775;SDS011;44276;49.534;6.378;2023-12-14T07:09:02;161.82;;;33.75;;
53775;SDS011;44276;49.534;6.378;2023-12-14T07:11:31;174.55;;;32.13;;
53775;SDS011;44276;49.534;6.378;2023-12-14T07:13:59;184.25;;;31.83;;
53775;SDS011;44276;49.534;6.378;2023-12-14T07:16:28;156.90;;;31.17;;
53775;SDS011;44276;49.534;6.378;2023-12-14T07:18:57;182.13;;;31.50;;
53775;SDS011;44276;49.534;6.378;2023-12-14T07:21:26;184.93;;;32.97;;
53775;SDS011;44276;49.534;6.378;2023-12-14T07:23:54;172.55;;;30.45;;
53775;SDS011;44276;49.534;6.378;2023-12-14T07:26:22;236.65;;;37.25;;
53775;SDS011;44276;49.534;6.378;2023-12-14T07:28:52;179.50;;;35.90;;
53775;SDS011;44276;49.534;6.378;2023-12-14T07:31:21;131.50;;;31.08;;
53775;SDS011;44276;49.534;6.378;2023-12-14T07:33:49;163.43;;;33.10;;
53775;SDS011;44276;49.534;6.378;2023-12-14T07:36:19;147.00;;;32.95;;
53775;SDS011;44276;49.534;6.378;2023-12-14T07:38:48;165.18;;;34.22;;
53775;SDS011;44276;49.534;6.378;2023-12-14T07:41:20;158.48;;;35.38;;
53775;SDS011;44276;49.534;6.378;2023-12-14T07:43:53;176.40;;;37.00;;
53775;SDS011;44276;49.534;6.378;2023-12-14T07:46:21;180.93;;;37.90;;
53775;SDS011;44276;49.534;6.378;2023-12-14T07:48:49;158.23;;;36.35;;
53775;SDS011;44276;49.534;6.378;2023-12-14T07:51:19;184.68;;;38.30;;
53775;SDS011;44276;49.534;6.378;2023-12-14T07:53:47;154.50;;;34.83;;
53775;SDS011;44276;49.534;6.378;2023-12-14T07:56:16;154.88;;;33.03;;
53775;SDS011;44276;49.534;6.378;2023-12-14T07:58:44;158.55;;;33.38;;
53775;SDS011;44276;49.534;6.378;2023-12-14T08:01:12;139.43;;;33.35;;
53775;SDS011;44276;49.534;6.378;2023-12-14T08:03:41;118.22;;;27.98;;
53775;SDS011;44276;49.534;6.378;2023-12-14T08:06:09;130.43;;;31.77;;
53775;SDS011;44276;49.534;6.378;2023-12-14T08:08:42;105.90;;;28.73;;
53775;SDS011;44276;49.534;6.378;2023-12-14T08:11:10;102.80;;;25.95;;
53775;SDS011;44276;49.534;6.378;2023-12-14T08:13:39;89.60;;;26.67;;
53775;SDS011;44276;49.534;6.378;2023-12-14T08:16:07;109.68;;;29.08;;
53775;SDS011;44276;49.534;6.378;2023-12-14T08:18:37;103.00;;;28.38;;
53775;SDS011;44276;49.534;6.378;2023-12-14T08:21:07;110.88;;;30.88;;
53775;SDS011;44276;49.534;6.378;2023-12-14T08:23:38;192.18;;;36.13;;
53775;SDS011;44276;49.534;6.378;2023-12-14T08:26:08;180.70;;;36.70;;
53775;SDS011;44276;49.534;6.378;2023-12-14T08:28:39;131.85;;;32.17;;
53775;SDS011;44276;49.534;6.378;2023-12-14T08:31:07;111.93;;;26.42;;
53775;SDS011;44276;49.534;6.378;2023-12-14T08:33:40;103.63;;;26.80;;
53775;SDS011;44276;49.534;6.378;2023-12-14T08:36:14;91.25;;;25.48;;
53775;SDS011;44276;49.534;6.378;2023-12-14T08:38:43;85.80;;;24.50;;
53775;SDS011;44276;49.534;6.378;2023-12-14T08:41:13;91.53;;;25.48;;
53775;SDS011;44276;49.534;6.378;2023-12-14T08:43:42;132.20;;;31.15;;
53775;SDS011;44276;49.534;6.378;2023-12-14T08:46:11;101.38;;;27.42;;
53775;SDS011;44276;49.534;6.378;2023-12-14T08:48:39;105.10;;;28.70;;
53775;SDS011;44276;49.534;6.378;2023-12-14T08:51:08;90.53;;;27.38;;
53775;SDS011;44276;49.534;6.378;2023-12-14T08:53:36;108.90;;;29.23;;
53775;SDS011;44276;49.534;6.378;2023-12-14T08:56:04;95.63;;;26.75;;
53775;SDS011;44276;49.534;6.378;2023-12-14T08:58:37;115.78;;;27.63;;
53775;SDS011;44276;49.534;6.378;2023-12-14T09:01:05;87.45;;;28.00;;
53775;SDS011;44276;49.534;6.378;2023-12-14T09:03:34;72.55;;;26.15;;
53775;SDS011;44276;49.534;6.378;2023-12-14T09:06:02;93.03;;;28.20;;
53775;SDS011;44276;49.534;6.378;2023-12-14T09:08:31;83.55;;;25.70;;
53775;SDS011;44276;49.534;6.378;2023-12-14T09:11:00;81.28;;;24.10;;
53775;SDS011;44276;49.534;6.378;2023-12-14T09:13:29;81.15;;;25.42;;
53775;SDS011;44276;49.534;6.378;2023-12-14T09:15:58;82.63;;;26.73;;
53775;SDS011;44276;49.534;6.378;2023-12-14T09:18:26;77.07;;;25.00;;
53775;SDS011;44276;49.534;6.378;2023-12-14T09:20:55;68.88;;;24.42;;
53775;SDS011;44276;49.534;6.378;2023-12-14T09:23:23;66.13;;;22.98;;
53775;SDS011;44276;49.534;6.378;2023-12-14T09:25:51;79.13;;;25.60;;
53775;SDS011;44276;49.534;6.378;2023-12-14T09:28:22;81.40;;;26.00;;
53775;SDS011;44276;49.534;6.378;2023-12-14T09:30:50;76.50;;;25.10;;
53775;SDS011;44276;49.534;6.378;2023-12-14T09:33:20;67.22;;;23.73;;
53775;SDS011;44276;49.534;6.378;2023-12-14T09:35:49;70.88;;;23.60;;
53775;SDS011;44276;49.534;6.378;2023-12-14T09:38:17;64.65;;;22.58;;
53775;SDS011;44276;49.534;6.378;2023-12-14T09:40:45;58.22;;;21.90;;
53775;SDS011;44276;49.534;6.378;2023-12-14T09:43:14;54.67;;;22.27;;
53775;SDS011;44276;49.534;6.378;2023-12-14T09:45:42;63.95;;;23.88;;
53775;SDS011;44276;49.534;6.378;2023-12-14T09:48:13;66.15;;;26.38;;
53775;SDS011;44276;49.534;6.378;2023-12-14T09:50:45;49.55;;;22.65;;
53775;SDS011;44276;49.534;6.378;2023-12-14T09:53:14;59.90;;;23.77;;
53775;SDS011;44276;49.534;6.378;2023-12-14T09:55:43;57.33;;;22.25;;
53775;SDS011;44276;49.534;6.378;2023-12-14T09:58:11;58.80;;;21.23;;
53775;SDS011;44276;49.534;6.378;2023-12-14T10:00:40;57.28;;;20.83;;
53775;SDS011;44276;49.534;6.378;2023-12-14T10:03:19;57.47;;;24.10;;
53775;SDS011;44276;49.534;6.378;2023-12-14T10:05:50;46.45;;;19.08;;
53775;SDS011;44276;49.534;6.378;2023-12-14T10:08:20;53.25;;;20.23;;
53775;SDS011;44276;49.534;6.378;2023-12-14T10:10:50;49.33;;;20.45;;
53775;SDS011;44276;49.534;6.378;2023-12-14T10:13:22;51.33;;;22.00;;
53775;SDS011;44276;49.534;6.378;2023-12-14T10:16:04;52.58;;;20.77;;
53775;SDS011;44276;49.534;6.378;2023-12-14T10:18:33;45.88;;;22.88;;
53775;SDS011;44276;49.534;6.378;2023-12-14T10:21:04;42.45;;;19.85;;
53775;SDS011;44276;49.534;6.378;2023-12-14T10:23:34;46.97;;;19.52;;
53775;SDS011;44276;49.534;6.378;2023-12-14T10:26:04;41.85;;;18.67;;
53775;SDS011;44276;49.534;6.378;2023-12-14T10:28:32;32.78;;;16.25;;
53775;SDS011;44276;49.534;6.378;2023-12-14T10:31:01;31.83;;;17.85;;
53775;SDS011;44276;49.534;6.378;2023-12-14T10:33:31;27.35;;;15.30;;
53775;SDS011;44276;49.534;6.378;2023-12-14T10:36:00;35.33;;;14.05;;
53775;SDS011;44276;49.534;6.378;2023-12-14T10:38:32;18.35;;;9.70;;
53775;SDS011;44276;49.534;6.378;2023-12-14T10:41:05;14.00;;;6.85;;
53775;SDS011;44276;49.534;6.378;2023-12-14T10:43:36;10.63;;;6.13;;
53775;SDS011;44276;49.534;6.378;2023-12-14T10:46:15;8.25;;;4.25;;
53775;SDS011;44276;49.534;6.378;2023-12-14T10:48:44;6.85;;;4.20;;
53775;SDS011;44276;49.534;6.378;2023-12-14T10:51:15;5.47;;;3.35;;
53775;SDS011;44276;49.534;6.378;2023-12-14T10:53:47;6.55;;;3.97;;
53775;SDS011;44276;49.534;6.378;2023-12-14T10:56:16;5.90;;;3.72;;
53775;SDS011;44276;49.534;6.378;2023-12-14T10:58:45;5.95;;;3.50;;
53775;SDS011;44276;49.534;6.378;2023-12-14T11:01:15;5.97;;;4.18;;
53775;SDS011;44276;49.534;6.378;2023-12-14T11:03:46;4.75;;;3.42;;
53775;SDS011;44276;49.534;6.378;2023-12-14T11:06:29;6.13;;;4.63;;
53775;SDS011;44276;49.534;6.378;2023-12-14T11:09:03;7.05;;;4.65;;
53775;SDS011;44276;49.534;6.378;2023-12-14T11:11:39;8.50;;;5.05;;
53775;SDS011;44276;49.534;6.378;2023-12-14T11:14:15;5.63;;;3.42;;
53775;SDS011;44276;49.534;6.378;2023-12-14T11:16:48;4.38;;;3.00;;
53775;SDS011;44276;49.534;6.378;2023-12-14T11:19:27;6.28;;;2.40;;
53775;SDS011;44276;49.534;6.378;2023-12-14T11:22:10;2.83;;;2.08;;
53775;SDS011;44276;49.534;6.378;2023-12-14T11:27:53;4.70;;;2.97;;
53775;SDS011;44276;49.534;6.378;2023-12-14T11:31:09;7.03;;;3.20;;
53775;SDS011;44276;49.534;6.378;2023-12-14T11:33:40;4.22;;;1.98;;
53775;SDS011;44276;49.534;6.378;2023-12-14T11:36:33;2.60;;;1.58;;
53775;SDS011;44276;49.534;6.378;2023-12-14T11:39:08;2.88;;;1.48;;
53775;SDS011;44276;49.534;6.378;2023-12-14T11:41:59;3.60;;;1.75;;
53775;SDS011;44276;49.534;6.378;2023-12-14T11:44:29;5.03;;;1.48;;
53775;SDS011;44276;49.534;6.378;2023-12-14T11:47:01;3.83;;;1.92;;
53775;SDS011;44276;49.534;6.378;2023-12-14T11:49:30;3.65;;;1.50;;
53775;SDS011;44276;49.534;6.378;2023-12-14T11:52:01;2.55;;;1.67;;
53775;SDS011;44276;49.534;6.378;2023-12-14T11:54:32;3.83;;;1.73;;
53775;SDS011;44276;49.534;6.378;2023-12-14T11:57:04;2.28;;;1.42;;
53775;SDS011;44276;49.534;6.378;2023-12-14T11:59:37;5.78;;;3.20;;
53775;SDS011;44276;49.534;6.378;2023-12-14T12:02:06;7.90;;;3.22;;
53775;SDS011;44276;49.534;6.378;2023-12-14T12:04:37;4.65;;;2.90;;
53775;SDS011;44276;49.534;6.378;2023-12-14T12:07:18;7.93;;;4.32;;
53775;SDS011;44276;49.534;6.378;2023-12-14T12:09:47;3.08;;;1.75;;
53775;SDS011;44276;49.534;6.378;2023-12-14T12:12:20;3.50;;;1.45;;
53775;SDS011;44276;49.534;6.378;2023-12-14T12:14:49;4.15;;;2.13;;
53775;SDS011;44276;49.534;6.378;2023-12-14T12:17:21;5.38;;;2.10;;
53775;SDS011;44276;49.534;6.378;2023-12-14T12:19:49;5.43;;;2.58;;
53775;SDS011;44276;49.534;6.378;2023-12-14T12:22:23;3.88;;;2.10;;
53775;SDS011;44276;49.534;6.378;2023-12-14T12:24:52;5.03;;;2.35;;
53775;SDS011;44276;49.534;6.378;2023-12-14T12:27:38;5.32;;;3.10;;
53775;SDS011;44276;49.534;6.378;2023-12-14T12:30:09;4.82;;;2.28;;
53775;SDS011;44276;49.534;6.378;2023-12-14T12:32:38;3.60;;;2.03;;
53775;SDS011;44276;49.534;6.378;2023-12-14T12:35:06;3.90;;;2.10;;
53775;SDS011;44276;49.534;6.378;2023-12-14T12:37:39;4.68;;;2.13;;
53775;SDS011;44276;49.534;6.378;2023-12-14T12:40:09;6.05;;;3.10;;
53775;SDS011;44276;49.534;6.378;2023-12-14T12:42:42;5.13;;;3.47;;
53775;SDS011;44276;49.534;6.378;2023-12-14T12:45:10;6.07;;;2.65;;
53775;SDS011;44276;49.534;6.378;2023-12-14T12:47:43;5.35;;;3.28;;
53775;SDS011;44276;49.534;6.378;2023-12-14T12:50:13;5.05;;;2.97;;
53775;SDS011;44276;49.534;6.378;2023-12-14T12:52:41;5.18;;;2.92;;
53775;SDS011;44276;49.534;6.378;2023-12-14T12:55:15;6.20;;;3.42;;
53775;SDS011;44276;49.534;6.378;2023-12-14T12:57:47;6.25;;;3.38;;
53775;SDS011;44276;49.534;6.378;2023-12-14T13:00:16;5.32;;;3.05;;
53775;SDS011;44276;49.534;6.378;2023-12-14T13:02:47;6.63;;;2.40;;
53775;SDS011;44276;49.534;6.378;2023-12-14T13:05:16;7.43;;;3.55;;
53775;SDS011;44276;49.534;6.378;2023-12-14T13:07:45;5.28;;;2.40;;
53775;SDS011;44276;49.534;6.378;2023-12-14T13:10:14;2.45;;;1.63;;
53775;SDS011;44276;49.534;6.378;2023-12-14T13:12:58;5.72;;;2.72;;
53775;SDS011;44276;49.534;6.378;2023-12-14T13:15:28;3.63;;;1.85;;
53775;SDS011;44276;49.534;6.378;2023-12-14T13:17:57;2.78;;;1.50;;
53775;SDS011;44276;49.534;6.378;2023-12-14T13:20:26;23.73;;;8.32;;
53775;SDS011;44276;49.534;6.378;2023-12-14T13:22:54;7.78;;;3.75;;
53775;SDS011;44276;49.534;6.378;2023-12-14T13:25:22;3.40;;;1.55;;
53775;SDS011;44276;49.534;6.378;2023-12-14T13:27:53;3.53;;;2.00;;
53775;SDS011;44276;49.534;6.378;2023-12-14T13:30:24;5.43;;;2.88;;
53775;SDS011;44276;49.534;6.378;2023-12-14T13:32:53;4.28;;;2.42;;
53775;SDS011;44276;49.534;6.378;2023-12-14T13:35:21;3.47;;;1.65;;
53775;SDS011;44276;49.534;6.378;2023-12-14T13:37:51;3.58;;;1.60;;
53775;SDS011;44276;49.534;6.378;2023-12-14T13:40:20;4.68;;;1.67;;
53775;SDS011;44276;49.534;6.378;2023-12-14T13:42:48;2.97;;;1.80;;
53775;SDS011;44276;49.534;6.378;2023-12-14T13:45:33;2.88;;;1.70;;
53775;SDS011;44276;49.534;6.378;2023-12-14T13:48:01;3.80;;;2.08;;
53775;SDS011;44276;49.534;6.378;2023-12-14T13:50:32;2.55;;;1.20;;
53775;SDS011;44276;49.534;6.378;2023-12-14T13:53:01;8.63;;;2.22;;
53775;SDS011;44276;49.534;6.378;2023-12-14T13:55:31;3.35;;;1.95;;
53775;SDS011;44276;49.534;6.378;2023-12-14T13:57:59;3.17;;;1.60;;
53775;SDS011;44276;49.534;6.378;2023-12-14T14:00:28;2.72;;;1.60;;
53775;SDS011;44276;49.534;6.378;2023-12-14T14:02:59;3.50;;;1.60;;
53775;SDS011;44276;49.534;6.378;2023-12-14T14:05:30;4.07;;;1.70;;
53775;SDS011;44276;49.534;6.378;2023-12-14T14:07:59;2.90;;;1.92;;
53775;SDS011;44276;49.534;6.378;2023-12-14T14:10:28;2.97;;;1.30;;
53775;SDS011;44276;49.534;6.378;2023-12-14T14:12:56;4.35;;;1.98;;
53775;SDS011;44276;49.534;6.378;2023-12-14T14:15:26;3.60;;;1.90;;
53775;SDS011;44276;49.534;6.378;2023-12-14T14:17:54;3.92;;;1.73;;
53775;SDS011;44276;49.534;6.378;2023-12-14T14:20:27;3.30;;;1.98;;
53775;SDS011;44276;49.534;6.378;2023-12-14T14:23:04;3.22;;;1.48;;
53775;SDS011;44276;49.534;6.378;2023-12-14T14:25:32;3.72;;;2.15;;
53775;SDS011;44276;49.534;6.378;2023-12-14T14:28:00;3.75;;;1.83;;
53775;SDS011;44276;49.534;6.378;2023-12-14T14:30:32;2.22;;;1.65;;
53775;SDS011;44276;49.534;6.378;2023-12-14T14:33:00;2.35;;;1.45;;
53775;SDS011;44276;49.534;6.378;2023-12-14T14:35:31;3.33;;;1.35;;
53775;SDS011;44276;49.534;6.378;2023-12-14T14:38:03;2.67;;;1.27;;
53775;SDS011;44276;49.534;6.378;2023-12-14T14:40:32;3.63;;;1.95;;
53775;SDS011;44276;49.534;6.378;2023-12-14T14:43:01;3.78;;;1.27;;
53775;SDS011;44276;49.534;6.378;2023-12-14T14:45:30;1.80;;;1.15;;